sensor_id;sensor_type;location;lat;lon;timestamp;P1;durP1;ratioP1;P2;durP2;ratioP2
62535;SDS011;63050;47.514;18.920;2023-04-16T00:03:32;4.70;;;3.80;;
62535;SDS011;63050;47.514;18.920;2023-04-16T00:08:33;3.90;;;2.90;;
62535;SDS011;63050;47.514;18.920;2023-04-16T00:13:35;3.30;;;2.40;;
62535;SDS011;63050;47.514;18.920;2023-04-16T00:18:36;5.80;;;2.80;;
62535;SDS011;63050;47.514;18.920;2023-04-16T00:23:37;3.70;;;3.00;;
62535;SDS011;63050;47.514;18.920;2023-04-16T00:28:38;4.20;;;2.60;;
62535;SDS011;63050;47.514;18.920;2023-04-16T00:33:39;3.50;;;2.70;;
62535;SDS011;63050;47.514;18.920;2023-04-16T00:38:40;3.00;;;2.30;;
62535;SDS011;63050;47.514;18.920;2023-04-16T00:43:41;3.00;;;2.30;;
62535;SDS011;63050;47.514;18.920;2023-04-16T00:48:43;4.10;;;3.70;;
62535;SDS011;63050;47.514;18.920;2023-04-16T00:53:44;4.00;;;3.00;;
62535;SDS011;63050;47.514;18.920;2023-04-16T00:58:46;3.80;;;2.60;;
62535;SDS011;63050;47.514;18.920;2023-04-16T01:03:47;3.90;;;2.80;;
62535;SDS011;63050;47.514;18.920;2023-04-16T01:08:49;6.80;;;5.90;;
62535;SDS011;63050;47.514;18.920;2023-04-16T01:13:50;7.20;;;4.40;;
62535;SDS011;63050;47.514;18.920;2023-04-16T01:18:51;7.10;;;4.00;;
62535;SDS011;63050;47.514;18.920;2023-04-16T01:23:52;8.60;;;5.00;;
62535;SDS011;63050;47.514;18.920;2023-04-16T01:28:53;7.00;;;5.90;;
62535;SDS011;63050;47.514;18.920;2023-04-16T01:33:53;6.90;;;5.70;;
62535;SDS011;63050;47.514;18.920;2023-04-16T01:38:54;11.60;;;8.60;;
62535;SDS011;63050;47.514;18.920;2023-04-16T01:43:55;9.60;;;8.30;;
62535;SDS011;63050;47.514;18.920;2023-04-16T01:48:57;7.10;;;5.90;;
62535;SDS011;63050;47.514;18.920;2023-04-16T01:53:58;10.80;;;7.90;;
62535;SDS011;63050;47.514;18.920;2023-04-16T01:59:00;15.30;;;10.90;;
62535;SDS011;63050;47.514;18.920;2023-04-16T02:04:05;14.90;;;11.50;;
62535;SDS011;63050;47.514;18.920;2023-04-16T02:09:06;13.60;;;11.00;;
62535;SDS011;63050;47.514;18.920;2023-04-16T02:14:08;13.10;;;10.30;;
62535;SDS011;63050;47.514;18.920;2023-04-16T02:19:09;12.50;;;9.50;;
62535;SDS011;63050;47.514;18.920;2023-04-16T02:24:11;10.60;;;8.90;;
62535;SDS011;63050;47.514;18.920;2023-04-16T02:29:12;10.30;;;9.00;;
62535;SDS011;63050;47.514;18.920;2023-04-16T02:34:17;11.00;;;9.80;;
62535;SDS011;63050;47.514;18.920;2023-04-16T02:39:18;10.20;;;9.00;;
62535;SDS011;63050;47.514;18.920;2023-04-16T02:44:19;10.70;;;8.20;;
62535;SDS011;63050;47.514;18.920;2023-04-16T02:49:21;10.20;;;8.50;;
62535;SDS011;63050;47.514;18.920;2023-04-16T02:54:22;9.70;;;8.70;;
62535;SDS011;63050;47.514;18.920;2023-04-16T02:59:23;9.00;;;7.40;;
62535;SDS011;63050;47.514;18.920;2023-04-16T03:04:24;9.40;;;8.30;;
62535;SDS011;63050;47.514;18.920;2023-04-16T03:09:25;9.00;;;7.60;;
62535;SDS011;63050;47.514;18.920;2023-04-16T03:14:26;9.20;;;7.80;;
62535;SDS011;63050;47.514;18.920;2023-04-16T03:19:27;8.80;;;7.30;;
62535;SDS011;63050;47.514;18.920;2023-04-16T03:24:28;10.20;;;8.40;;
62535;SDS011;63050;47.514;18.920;2023-04-16T03:29:29;11.10;;;8.00;;
62535;SDS011;63050;47.514;18.920;2023-04-16T03:34:30;10.90;;;7.20;;
62535;SDS011;63050;47.514;18.920;2023-04-16T03:39:31;8.60;;;7.00;;
62535;SDS011;63050;47.514;18.920;2023-04-16T03:44:33;8.70;;;7.80;;
62535;SDS011;63050;47.514;18.920;2023-04-16T03:49:34;7.90;;;7.10;;
62535;SDS011;63050;47.514;18.920;2023-04-16T03:54:35;8.30;;;6.80;;
62535;SDS011;63050;47.514;18.920;2023-04-16T03:59:49;8.70;;;6.20;;
62535;SDS011;63050;47.514;18.920;2023-04-16T04:04:50;8.40;;;7.00;;
62535;SDS011;63050;47.514;18.920;2023-04-16T04:09:52;7.50;;;6.70;;
62535;SDS011;63050;47.514;18.920;2023-04-16T04:14:53;10.60;;;6.60;;
62535;SDS011;63050;47.514;18.920;2023-04-16T04:19:54;7.70;;;6.60;;
62535;SDS011;63050;47.514;18.920;2023-04-16T04:24:55;7.00;;;6.30;;
62535;SDS011;63050;47.514;18.920;2023-04-16T04:29:57;9.00;;;7.50;;
62535;SDS011;63050;47.514;18.920;2023-04-16T04:34:59;10.70;;;7.10;;
62535;SDS011;63050;47.514;18.920;2023-04-16T04:40:01;8.20;;;6.90;;
62535;SDS011;63050;47.514;18.920;2023-04-16T04:45:02;7.50;;;6.70;;
62535;SDS011;63050;47.514;18.920;2023-04-16T04:50:05;8.40;;;7.00;;
62535;SDS011;63050;47.514;18.920;2023-04-16T04:55:07;9.20;;;6.90;;
62535;SDS011;63050;47.514;18.920;2023-04-16T05:00:09;11.30;;;8.40;;
62535;SDS011;63050;47.514;18.920;2023-04-16T05:05:17;11.70;;;7.50;;
62535;SDS011;63050;47.514;18.920;2023-04-16T05:10:18;8.00;;;6.80;;
62535;SDS011;63050;47.514;18.920;2023-04-16T05:15:19;8.50;;;7.60;;
62535;SDS011;63050;47.514;18.920;2023-04-16T05:20:21;8.30;;;7.00;;
62535;SDS011;63050;47.514;18.920;2023-04-16T05:25:23;7.10;;;6.40;;
62535;SDS011;63050;47.514;18.920;2023-04-16T05:30:24;7.60;;;6.80;;
62535;SDS011;63050;47.514;18.920;2023-04-16T05:35:25;7.50;;;6.20;;
62535;SDS011;63050;47.514;18.920;2023-04-16T05:40:27;7.30;;;6.60;;
62535;SDS011;63050;47.514;18.920;2023-04-16T05:45:27;9.70;;;6.50;;
62535;SDS011;63050;47.514;18.920;2023-04-16T05:50:28;8.50;;;7.10;;
62535;SDS011;63050;47.514;18.920;2023-04-16T05:55:29;8.10;;;6.40;;
62535;SDS011;63050;47.514;18.920;2023-04-16T06:00:31;7.80;;;6.80;;
62535;SDS011;63050;47.514;18.920;2023-04-16T06:05:32;7.00;;;6.20;;
62535;SDS011;63050;47.514;18.920;2023-04-16T06:10:33;7.70;;;6.80;;
62535;SDS011;63050;47.514;18.920;2023-04-16T06:15:34;6.70;;;5.90;;
62535;SDS011;63050;47.514;18.920;2023-04-16T06:20:34;8.00;;;6.30;;
62535;SDS011;63050;47.514;18.920;2023-04-16T06:25:35;7.40;;;6.40;;
62535;SDS011;63050;47.514;18.920;2023-04-16T06:30:36;8.30;;;6.70;;
62535;SDS011;63050;47.514;18.920;2023-04-16T06:35:38;6.90;;;6.20;;
62535;SDS011;63050;47.514;18.920;2023-04-16T06:40:39;8.80;;;6.50;;
62535;SDS011;63050;47.514;18.920;2023-04-16T06:45:40;7.40;;;6.70;;
62535;SDS011;63050;47.514;18.920;2023-04-16T06:50:41;7.10;;;5.60;;
62535;SDS011;63050;47.514;18.920;2023-04-16T06:55:42;7.10;;;6.40;;
62535;SDS011;63050;47.514;18.920;2023-04-16T07:00:43;6.80;;;5.80;;
62535;SDS011;63050;47.514;18.920;2023-04-16T07:05:44;6.90;;;5.30;;
62535;SDS011;63050;47.514;18.920;2023-04-16T07:10:45;6.30;;;5.20;;
62535;SDS011;63050;47.514;18.920;2023-04-16T07:15:46;5.80;;;5.20;;
62535;SDS011;63050;47.514;18.920;2023-04-16T07:20:47;8.90;;;5.90;;
62535;SDS011;63050;47.514;18.920;2023-04-16T07:25:48;6.50;;;5.40;;
62535;SDS011;63050;47.514;18.920;2023-04-16T07:30:49;6.50;;;5.30;;
62535;SDS011;63050;47.514;18.920;2023-04-16T07:35:50;6.00;;;4.40;;
62535;SDS011;63050;47.514;18.920;2023-04-16T07:40:51;6.80;;;4.40;;
62535;SDS011;63050;47.514;18.920;2023-04-16T07:45:52;5.90;;;4.80;;
62535;SDS011;63050;47.514;18.920;2023-04-16T07:50:52;5.70;;;4.30;;
62535;SDS011;63050;47.514;18.920;2023-04-16T07:55:54;4.70;;;4.10;;
62535;SDS011;63050;47.514;18.920;2023-04-16T08:00:55;5.50;;;4.30;;
62535;SDS011;63050;47.514;18.920;2023-04-16T08:05:56;4.30;;;3.90;;
62535;SDS011;63050;47.514;18.920;2023-04-16T08:10:57;6.10;;;4.10;;
62535;SDS011;63050;47.514;18.920;2023-04-16T08:15:59;7.00;;;4.50;;
62535;SDS011;63050;47.514;18.920;2023-04-16T08:21:00;5.00;;;4.20;;
62535;SDS011;63050;47.514;18.920;2023-04-16T08:26:01;4.80;;;3.70;;
62535;SDS011;63050;47.514;18.920;2023-04-16T08:31:02;4.30;;;3.60;;
62535;SDS011;63050;47.514;18.920;2023-04-16T08:36:03;6.00;;;4.00;;
62535;SDS011;63050;47.514;18.920;2023-04-16T08:41:04;4.50;;;3.80;;
62535;SDS011;63050;47.514;18.920;2023-04-16T08:46:06;5.20;;;3.60;;
62535;SDS011;63050;47.514;18.920;2023-04-16T08:51:08;4.50;;;3.40;;
62535;SDS011;63050;47.514;18.920;2023-04-16T08:56:10;4.00;;;3.10;;
62535;SDS011;63050;47.514;18.920;2023-04-16T09:01:11;6.90;;;3.40;;
62535;SDS011;63050;47.514;18.920;2023-04-16T09:06:12;4.10;;;3.20;;
62535;SDS011;63050;47.514;18.920;2023-04-16T09:11:16;3.70;;;2.50;;
62535;SDS011;63050;47.514;18.920;2023-04-16T09:16:17;4.10;;;2.60;;
62535;SDS011;63050;47.514;18.920;2023-04-16T09:21:19;5.60;;;2.80;;
62535;SDS011;63050;47.514;18.920;2023-04-16T09:26:20;5.70;;;3.00;;
62535;SDS011;63050;47.514;18.920;2023-04-16T09:31:22;3.90;;;3.00;;
62535;SDS011;63050;47.514;18.920;2023-04-16T09:36:23;3.10;;;2.30;;
62535;SDS011;63050;47.514;18.920;2023-04-16T09:41:25;3.10;;;2.00;;
62535;SDS011;63050;47.514;18.920;2023-04-16T09:46:31;4.50;;;2.10;;
62535;SDS011;63050;47.514;18.920;2023-04-16T09:51:39;5.10;;;2.80;;
62535;SDS011;63050;47.514;18.920;2023-04-16T09:56:44;3.20;;;2.40;;
62535;SDS011;63050;47.514;18.920;2023-04-16T10:01:46;3.10;;;2.00;;
62535;SDS011;63050;47.514;18.920;2023-04-16T10:07:01;2.90;;;1.80;;
62535;SDS011;63050;47.514;18.920;2023-04-16T10:12:04;2.60;;;2.00;;
62535;SDS011;63050;47.514;18.920;2023-04-16T10:17:06;4.00;;;1.80;;
62535;SDS011;63050;47.514;18.920;2023-04-16T10:22:07;3.30;;;1.90;;
62535;SDS011;63050;47.514;18.920;2023-04-16T10:27:08;4.40;;;1.90;;
62535;SDS011;63050;47.514;18.920;2023-04-16T10:32:09;2.90;;;1.60;;
62535;SDS011;63050;47.514;18.920;2023-04-16T10:37:10;3.20;;;2.40;;
62535;SDS011;63050;47.514;18.920;2023-04-16T10:42:12;3.80;;;1.70;;
62535;SDS011;63050;47.514;18.920;2023-04-16T10:47:13;2.10;;;1.50;;
62535;SDS011;63050;47.514;18.920;2023-04-16T10:52:14;2.30;;;1.50;;
62535;SDS011;63050;47.514;18.920;2023-04-16T10:57:18;4.20;;;1.60;;
62535;SDS011;63050;47.514;18.920;2023-04-16T11:02:19;4.10;;;2.10;;
62535;SDS011;63050;47.514;18.920;2023-04-16T11:07:21;6.30;;;1.70;;
62535;SDS011;63050;47.514;18.920;2023-04-16T11:17:38;2.50;;;1.40;;
62535;SDS011;63050;47.514;18.920;2023-04-16T11:22:40;1.80;;;1.10;;
62535;SDS011;63050;47.514;18.920;2023-04-16T11:27:41;2.80;;;1.40;;
62535;SDS011;63050;47.514;18.920;2023-04-16T11:32:42;2.40;;;1.50;;
62535;SDS011;63050;47.514;18.920;2023-04-16T11:37:43;2.00;;;1.50;;
62535;SDS011;63050;47.514;18.920;2023-04-16T11:42:45;2.70;;;1.30;;
62535;SDS011;63050;47.514;18.920;2023-04-16T11:47:47;3.00;;;1.30;;
62535;SDS011;63050;47.514;18.920;2023-04-16T11:52:53;4.80;;;1.90;;
62535;SDS011;63050;47.514;18.920;2023-04-16T11:57:55;3.20;;;1.40;;
62535;SDS011;63050;47.514;18.920;2023-04-16T12:02:57;4.30;;;1.30;;
62535;SDS011;63050;47.514;18.920;2023-04-16T12:07:58;1.80;;;1.30;;
62535;SDS011;63050;47.514;18.920;2023-04-16T12:13:11;4.50;;;1.30;;
62535;SDS011;63050;47.514;18.920;2023-04-16T12:18:16;1.90;;;1.20;;
62535;SDS011;63050;47.514;18.920;2023-04-16T12:23:21;2.10;;;1.20;;
62535;SDS011;63050;47.514;18.920;2023-04-16T12:28:33;3.60;;;1.10;;
62535;SDS011;63050;47.514;18.920;2023-04-16T12:33:36;2.00;;;1.20;;
62535;SDS011;63050;47.514;18.920;2023-04-16T12:38:37;2.60;;;1.30;;
62535;SDS011;63050;47.514;18.920;2023-04-16T12:43:38;1.90;;;1.20;;
62535;SDS011;63050;47.514;18.920;2023-04-16T12:48:38;2.80;;;1.70;;
62535;SDS011;63050;47.514;18.920;2023-04-16T12:53:39;3.90;;;1.30;;
62535;SDS011;63050;47.514;18.920;2023-04-16T12:58:40;3.70;;;1.20;;
62535;SDS011;63050;47.514;18.920;2023-04-16T13:03:41;1.60;;;1.00;;
62535;SDS011;63050;47.514;18.920;2023-04-16T13:08:42;2.60;;;1.00;;
62535;SDS011;63050;47.514;18.920;2023-04-16T13:13:44;2.00;;;0.70;;
62535;SDS011;63050;47.514;18.920;2023-04-16T13:18:45;2.70;;;1.00;;
62535;SDS011;63050;47.514;18.920;2023-04-16T13:23:46;2.40;;;1.20;;
62535;SDS011;63050;47.514;18.920;2023-04-16T13:28:47;3.50;;;1.30;;
62535;SDS011;63050;47.514;18.920;2023-04-16T13:33:48;1.40;;;0.80;;
62535;SDS011;63050;47.514;18.920;2023-04-16T13:38:49;1.90;;;1.20;;
62535;SDS011;63050;47.514;18.920;2023-04-16T13:43:50;2.80;;;1.00;;
62535;SDS011;63050;47.514;18.920;2023-04-16T13:48:51;1.90;;;1.00;;
62535;SDS011;63050;47.514;18.920;2023-04-16T13:53:53;1.80;;;0.90;;
62535;SDS011;63050;47.514;18.920;2023-04-16T13:58:55;1.70;;;1.10;;
62535;SDS011;63050;47.514;18.920;2023-04-16T14:03:56;2.50;;;0.90;;
62535;SDS011;63050;47.514;18.920;2023-04-16T14:08:58;3.10;;;1.00;;
62535;SDS011;63050;47.514;18.920;2023-04-16T14:14:00;1.50;;;0.90;;
62535;SDS011;63050;47.514;18.920;2023-04-16T14:19:01;2.20;;;0.90;;
62535;SDS011;63050;47.514;18.920;2023-04-16T14:24:02;2.30;;;1.00;;
62535;SDS011;63050;47.514;18.920;2023-04-16T14:29:03;2.30;;;0.90;;
62535;SDS011;63050;47.514;18.920;2023-04-16T14:34:04;2.80;;;1.30;;
62535;SDS011;63050;47.514;18.920;2023-04-16T14:39:05;1.90;;;1.00;;
62535;SDS011;63050;47.514;18.920;2023-04-16T14:44:06;2.30;;;1.00;;
62535;SDS011;63050;47.514;18.920;2023-04-16T14:49:07;1.50;;;0.80;;
62535;SDS011;63050;47.514;18.920;2023-04-16T14:54:09;3.40;;;0.90;;
62535;SDS011;63050;47.514;18.920;2023-04-16T14:59:10;1.30;;;0.80;;
62535;SDS011;63050;47.514;18.920;2023-04-16T15:04:11;1.50;;;0.80;;
62535;SDS011;63050;47.514;18.920;2023-04-16T15:09:12;2.20;;;0.80;;
62535;SDS011;63050;47.514;18.920;2023-04-16T15:14:13;1.90;;;0.80;;
62535;SDS011;63050;47.514;18.920;2023-04-16T15:19:14;1.60;;;0.80;;
62535;SDS011;63050;47.514;18.920;2023-04-16T15:24:15;1.60;;;0.90;;
62535;SDS011;63050;47.514;18.920;2023-04-16T15:29:17;2.10;;;0.90;;
62535;SDS011;63050;47.514;18.920;2023-04-16T15:34:18;1.20;;;0.80;;
62535;SDS011;63050;47.514;18.920;2023-04-16T15:39:19;2.10;;;0.60;;
62535;SDS011;63050;47.514;18.920;2023-04-16T15:44:21;2.00;;;0.70;;
62535;SDS011;63050;47.514;18.920;2023-04-16T15:49:22;1.40;;;0.80;;
62535;SDS011;63050;47.514;18.920;2023-04-16T15:54:24;1.40;;;0.80;;
62535;SDS011;63050;47.514;18.920;2023-04-16T15:59:25;1.00;;;0.70;;
62535;SDS011;63050;47.514;18.920;2023-04-16T16:04:26;1.60;;;0.90;;
62535;SDS011;63050;47.514;18.920;2023-04-16T16:09:27;3.60;;;0.80;;
62535;SDS011;63050;47.514;18.920;2023-04-16T16:14:28;1.50;;;0.90;;
62535;SDS011;63050;47.514;18.920;2023-04-16T16:19:31;2.20;;;1.00;;
62535;SDS011;63050;47.514;18.920;2023-04-16T16:24:32;2.00;;;0.90;;
62535;SDS011;63050;47.514;18.920;2023-04-16T16:29:33;2.10;;;1.00;;
62535;SDS011;63050;47.514;18.920;2023-04-16T16:34:34;3.20;;;1.10;;
62535;SDS011;63050;47.514;18.920;2023-04-16T16:39:35;3.10;;;1.00;;
62535;SDS011;63050;47.514;18.920;2023-04-16T16:44:36;3.20;;;1.40;;
62535;SDS011;63050;47.514;18.920;2023-04-16T16:49:37;2.60;;;1.40;;
62535;SDS011;63050;47.514;18.920;2023-04-16T16:54:39;3.60;;;1.80;;
62535;SDS011;63050;47.514;18.920;2023-04-16T16:59:42;2.70;;;1.60;;
62535;SDS011;63050;47.514;18.920;2023-04-16T17:04:43;2.50;;;1.30;;
62535;SDS011;63050;47.514;18.920;2023-04-16T17:09:44;2.50;;;1.40;;
62535;SDS011;63050;47.514;18.920;2023-04-16T17:14:49;2.40;;;1.50;;
62535;SDS011;63050;47.514;18.920;2023-04-16T17:19:50;1.90;;;1.00;;
62535;SDS011;63050;47.514;18.920;2023-04-16T17:24:53;2.00;;;1.30;;
62535;SDS011;63050;47.514;18.920;2023-04-16T17:29:54;2.30;;;1.40;;
62535;SDS011;63050;47.514;18.920;2023-04-16T17:34:59;2.00;;;1.40;;
62535;SDS011;63050;47.514;18.920;2023-04-16T17:40:03;2.90;;;1.60;;
62535;SDS011;63050;47.514;18.920;2023-04-16T17:45:07;2.60;;;1.90;;
62535;SDS011;63050;47.514;18.920;2023-04-16T17:50:08;1.70;;;1.40;;
62535;SDS011;63050;47.514;18.920;2023-04-16T17:55:10;3.70;;;2.10;;
62535;SDS011;63050;47.514;18.920;2023-04-16T18:00:13;3.20;;;1.80;;
62535;SDS011;63050;47.514;18.920;2023-04-16T18:05:14;3.80;;;2.30;;
62535;SDS011;63050;47.514;18.920;2023-04-16T18:10:15;3.70;;;1.80;;
62535;SDS011;63050;47.514;18.920;2023-04-16T18:15:17;2.90;;;1.80;;
62535;SDS011;63050;47.514;18.920;2023-04-16T18:20:18;2.50;;;1.70;;
62535;SDS011;63050;47.514;18.920;2023-04-16T18:25:20;2.70;;;1.50;;
62535;SDS011;63050;47.514;18.920;2023-04-16T18:30:21;2.50;;;1.70;;
62535;SDS011;63050;47.514;18.920;2023-04-16T18:35:23;3.10;;;1.80;;
62535;SDS011;63050;47.514;18.920;2023-04-16T18:40:25;2.80;;;1.80;;
62535;SDS011;63050;47.514;18.920;2023-04-16T18:50:32;2.90;;;1.70;;
62535;SDS011;63050;47.514;18.920;2023-04-16T18:55:33;2.30;;;1.40;;
62535;SDS011;63050;47.514;18.920;2023-04-16T19:00:35;2.20;;;1.70;;
62535;SDS011;63050;47.514;18.920;2023-04-16T19:05:37;2.50;;;1.60;;
62535;SDS011;63050;47.514;18.920;2023-04-16T19:10:39;2.60;;;1.60;;
62535;SDS011;63050;47.514;18.920;2023-04-16T19:15:40;2.30;;;1.40;;
62535;SDS011;63050;47.514;18.920;2023-04-16T19:20:43;2.20;;;1.30;;
62535;SDS011;63050;47.514;18.920;2023-04-16T19:25:44;1.70;;;1.30;;
62535;SDS011;63050;47.514;18.920;2023-04-16T19:30:48;2.30;;;1.70;;
62535;SDS011;63050;47.514;18.920;2023-04-16T19:35:52;2.40;;;1.60;;
62535;SDS011;63050;47.514;18.920;2023-04-16T19:40:53;3.90;;;2.20;;
62535;SDS011;63050;47.514;18.920;2023-04-16T19:45:55;1.70;;;1.20;;
62535;SDS011;63050;47.514;18.920;2023-04-16T19:50:59;2.40;;;1.40;;
62535;SDS011;63050;47.514;18.920;2023-04-16T19:56:02;3.40;;;2.00;;
62535;SDS011;63050;47.514;18.920;2023-04-16T20:01:07;2.40;;;1.50;;
62535;SDS011;63050;47.514;18.920;2023-04-16T20:06:09;3.30;;;2.10;;
62535;SDS011;63050;47.514;18.920;2023-04-16T20:11:10;2.70;;;1.40;;
62535;SDS011;63050;47.514;18.920;2023-04-16T20:16:12;1.70;;;1.20;;
62535;SDS011;63050;47.514;18.920;2023-04-16T20:21:13;1.90;;;1.20;;
62535;SDS011;63050;47.514;18.920;2023-04-16T20:26:14;1.50;;;1.00;;
62535;SDS011;63050;47.514;18.920;2023-04-16T20:31:17;2.20;;;1.30;;
62535;SDS011;63050;47.514;18.920;2023-04-16T20:36:19;2.30;;;1.50;;
62535;SDS011;63050;47.514;18.920;2023-04-16T20:41:20;2.20;;;1.60;;
62535;SDS011;63050;47.514;18.920;2023-04-16T20:46:22;2.10;;;1.20;;
62535;SDS011;63050;47.514;18.920;2023-04-16T20:51:23;1.70;;;1.20;;
62535;SDS011;63050;47.514;18.920;2023-04-16T20:56:24;2.50;;;1.40;;
62535;SDS011;63050;47.514;18.920;2023-04-16T21:01:25;1.40;;;1.00;;
62535;SDS011;63050;47.514;18.920;2023-04-16T21:06:26;2.40;;;1.10;;
62535;SDS011;63050;47.514;18.920;2023-04-16T21:11:27;2.40;;;1.40;;
62535;SDS011;63050;47.514;18.920;2023-04-16T21:16:32;3.80;;;1.40;;
62535;SDS011;63050;47.514;18.920;2023-04-16T21:21:33;1.70;;;1.00;;
62535;SDS011;63050;47.514;18.920;2023-04-16T21:26:34;1.30;;;1.00;;
62535;SDS011;63050;47.514;18.920;2023-04-16T21:31:35;1.90;;;1.20;;
62535;SDS011;63050;47.514;18.920;2023-04-16T21:36:36;3.50;;;1.00;;
62535;SDS011;63050;47.514;18.920;2023-04-16T21:41:37;2.10;;;1.00;;
62535;SDS011;63050;47.514;18.920;2023-04-16T21:46:38;1.60;;;1.10;;
62535;SDS011;63050;47.514;18.920;2023-04-16T21:51:39;4.60;;;1.60;;
62535;SDS011;63050;47.514;18.920;2023-04-16T21:56:42;1.70;;;1.00;;
62535;SDS011;63050;47.514;18.920;2023-04-16T22:01:43;2.90;;;1.30;;
62535;SDS011;63050;47.514;18.920;2023-04-16T22:06:44;2.80;;;1.30;;
62535;SDS011;63050;47.514;18.920;2023-04-16T22:11:45;4.00;;;1.20;;
62535;SDS011;63050;47.514;18.920;2023-04-16T22:16:47;2.60;;;1.20;;
62535;SDS011;63050;47.514;18.920;2023-04-16T22:21:52;2.00;;;1.40;;
62535;SDS011;63050;47.514;18.920;2023-04-16T22:26:53;2.20;;;1.10;;
62535;SDS011;63050;47.514;18.920;2023-04-16T22:31:54;1.90;;;0.90;;
62535;SDS011;63050;47.514;18.920;2023-04-16T22:36:55;1.50;;;1.10;;
62535;SDS011;63050;47.514;18.920;2023-04-16T22:41:56;2.00;;;1.20;;
62535;SDS011;63050;47.514;18.920;2023-04-16T22:46:57;2.00;;;1.10;;
62535;SDS011;63050;47.514;18.920;2023-04-16T22:51:58;1.40;;;1.10;;
62535;SDS011;63050;47.514;18.920;2023-04-16T22:57:02;1.80;;;1.20;;
62535;SDS011;63050;47.514;18.920;2023-04-16T23:02:03;2.40;;;1.10;;
62535;SDS011;63050;47.514;18.920;2023-04-16T23:07:04;2.20;;;1.30;;
62535;SDS011;63050;47.514;18.920;2023-04-16T23:12:05;1.90;;;1.30;;
62535;SDS011;63050;47.514;18.920;2023-04-16T23:17:06;5.00;;;1.30;;
62535;SDS011;63050;47.514;18.920;2023-04-16T23:22:07;1.60;;;1.10;;
62535;SDS011;63050;47.514;18.920;2023-04-16T23:27:08;2.20;;;0.90;;
62535;SDS011;63050;47.514;18.920;2023-04-16T23:32:10;1.70;;;1.20;;
62535;SDS011;63050;47.514;18.920;2023-04-16T23:37:10;1.50;;;1.10;;
62535;SDS011;63050;47.514;18.920;2023-04-16T23:42:12;2.70;;;1.20;;
62535;SDS011;63050;47.514;18.920;2023-04-16T23:47:13;1.90;;;1.30;;
62535;SDS011;63050;47.514;18.920;2023-04-16T23:52:14;2.60;;;1.30;;
62535;SDS011;63050;47.514;18.920;2023-04-16T23:57:14;1.80;;;1.10;;
